Time;durP1;ratioP1;P1;durP2;ratioP2;P2;SDS_P1;SDS_P2;PMS_P1;PMS_P2;Temp;Humidity;BMP_temperature;BMP_pressure;BME280_temperature;BME280_humidity;BME280_pressure;Samples;Min_cycle;Max_cycle;Signal;HPM_P1;HPM_P2
2023/10/07 00:00:17;;;;;;;;;;;;;;;;;;5007698;28;3250;-57
2023/10/07 00:02:42;;;;;;;;;;;;;;;;;;5006192;28;5165;-57
2023/10/07 00:05:12;;;;;;;;;;;;;;;;;;5007529;28;5232;-57
2023/10/07 00:07:38;;;;;;;;;;;;;;;;;;5003241;28;5039;-57
2023/10/07 00:10:05;;;;;;;;;;;;;;;;;;5003242;28;5245;-57
2023/10/07 00:12:31;;;;;;;;;;;;;;;;;;5007425;28;5039;-58
2023/10/07 00:14:57;;;;;;;;;;;;;;;;;;5001167;28;1248;-57
2023/10/07 00:17:22;;;;;;;;;;;;;;;;;;5007144;28;5068;-57
2023/10/07 00:19:47;;;;;;;;;;;;;;;;;;5003936;28;5107;-58
2023/10/07 00:22:19;;;;;;;;;;;;;;;;;;5000909;28;4488;-57
2023/10/07 00:24:46;;;;;;;;;;;;;;;;;;4995724;28;5101;-56
2023/10/07 00:27:38;;;;;;;;;;;;;;;;;;5005197;28;5240;-57
2023/10/07 00:29:59;;;;;;;;;;;;;;;;;;5001968;28;1519;-57
2023/10/07 00:32:27;;;;;;;;;;;;;;;;;;5006703;28;5276;-58
2023/10/07 00:34:54;;;;;;;;;;;;;;;;;;5004243;28;5062;-58
2023/10/07 00:37:20;;;;;;;;;;;;;;;;;;5009474;28;4985;-58
2023/10/07 00:39:46;;;;;;;;;;;;;;;;;;5014371;28;5109;-56
2023/10/07 00:42:11;;;;;;;;;;;;;;;;;;5004704;28;5088;-57
2023/10/07 00:44:37;;;;;;;;;;;;;;;;;;4995919;28;1981;-56
2023/10/07 00:49:28;;;;;;;;;;;;;;;;;;5007584;28;5099;-57
2023/10/07 00:51:53;;;;;;;;;;;;;;;;;;5006865;28;5206;-58
2023/10/07 00:57:05;;;;;;;;;;;;;;;;;;5008969;28;1691;-58
2023/10/07 00:59:32;;;;;;;;;;;;;;;;;;5008437;28;4846;-57
2023/10/07 01:01:57;;;;;;;;;;;;;;;;;;5023301;28;4651;-57
2023/10/07 01:04:24;;;;;;;;;;;;;;;;;;5007943;28;4910;-57
2023/10/07 01:06:59;;;;;;;;;;;;;;;;;;5005057;28;4644;-57
2023/10/07 01:09:24;;;;;;;;;;;;;;;;;;5008580;28;4515;-57
2023/10/07 01:11:57;;;;;;;;;;;;;;;;;;5008943;28;3083;-57
2023/10/07 01:14:22;;;;;;;;;;;;;;;;;;5005583;28;5213;-57
2023/10/07 01:16:48;;;;;;;;;;;;;;;;;;5003626;28;5106;-59
2023/10/07 01:21:59;;;;;;;;;;;;;;;;;;5008166;28;5116;-58
2023/10/07 01:27:02;;;;;;;;;;;;;;;;;;5006242;28;3123;-58
2023/10/07 01:29:28;;;;;;;;;;;;;;;;;;5007527;28;5119;-58
2023/10/07 01:31:59;;;;;;;;;;;;;;;;;;5005935;28;5044;-57
2023/10/07 01:34:35;;;;;;;;;;;;;;;;;;5004864;28;5206;-58
2023/10/07 01:37:03;;;;;;;;;;;;;;;;;;5006349;28;5067;-58
2023/10/07 01:39:39;;;;;;;;;;;;;;;;;;5007003;28;4492;-58
2023/10/07 01:42:06;;;;;;;;;;;;;;;;;;5002082;28;2090;-56
2023/10/07 01:44:32;;;;;;;;;;;;;;;;;;5008509;28;4859;-57
2023/10/07 01:46:57;;;;;;;;;;;;;;;;;;5004792;28;5113;-57
2023/10/07 01:49:22;;;;;;;;;;;;;;;;;;5006455;28;5098;-58
2023/10/07 01:51:49;;;;;;;;;;;;;;;;;;5008072;28;5018;-57
2023/10/07 01:54:15;;;;;;;;;;;;;;;;;;5007389;28;4995;-58
2023/10/07 01:56:40;;;;;;;;;;;;;;;;;;5008065;28;1330;-58
2023/10/07 01:59:28;;;;;;;;;;;;;;;;;;5006513;28;5087;-57
2023/10/07 02:01:58;;;;;;;;;;;;;;;;;;5003087;28;5283;-57
2023/10/07 02:04:26;;;;;;;;;;;;;;;;;;5002256;28;5143;-58
2023/10/07 02:06:55;;;;;;;;;;;;;;;;;;5003599;28;5107;-58
2023/10/07 02:09:24;;;;;;;;;;;;;;;;;;5005652;28;5219;-58
2023/10/07 02:11:56;;;;;;;;;;;;;;;;;;5001725;28;1153;-57
2023/10/07 02:14:24;;;;;;;;;;;;;;;;;;4989655;28;4500;-58
2023/10/07 02:16:52;;;;;;;;;;;;;;;;;;5005601;28;4458;-58
2023/10/07 02:19:27;;;;;;;;;;;;;;;;;;5015330;28;4474;-58
2023/10/07 02:22:07;;;;;;;;;;;;;;;;;;5002640;28;5140;-58
2023/10/07 02:24:33;;;;;;;;;;;;;;;;;;5004026;28;5098;-58
2023/10/07 02:26:59;;;;;;;;;;;;;;;;;;5013593;28;3242;-57
2023/10/07 02:29:26;;;;;;;;;;;;;;;;;;5004187;28;5102;-56
2023/10/07 02:31:53;;;;;;;;;;;;;;;;;;5003837;28;4532;-58
2023/10/07 02:34:28;;;;;;;;;;;;;;;;;;5002943;28;5479;-57
2023/10/07 02:37:09;;;;;;;;;;;;;;;;;;5002081;28;5074;-57
2023/10/07 02:39:45;;;;;;;;;;;;;;;;;;5002237;28;5126;-58
2023/10/07 02:42:11;;;;;;;;;;;;;;;;;;5007374;28;4600;-58
2023/10/07 02:44:38;;;;;;;;;;;;;;;;;;5003835;28;2304;-56
2023/10/07 02:47:11;;;;;;;;;;;;;;;;;;5006004;28;4508;-57
2023/10/07 02:49:37;;;;;;;;;;;;;;;;;;5006369;28;4583;-57
2023/10/07 02:52:02;;;;;;;;;;;;;;;;;;5006615;28;5021;-58
2023/10/07 02:54:33;;;;;;;;;;;;;;;;;;5004536;28;4901;-58
2023/10/07 02:57:11;;;;;;;;;;;;;;;;;;5004805;28;2893;-57
2023/10/07 02:59:41;;;;;;;;;;;;;;;;;;4998859;28;4732;-58
2023/10/07 03:02:12;;;;;;;;;;;;;;;;;;4994618;28;5107;-57
2023/10/07 03:04:41;;;;;;;;;;;;;;;;;;5000570;28;4616;-57
2023/10/07 03:07:16;;;;;;;;;;;;;;;;;;5010024;28;5306;-57
2023/10/07 03:10:04;;;;;;;;;;;;;;;;;;5006705;28;5070;-57
2023/10/07 03:12:30;;;;;;;;;;;;;;;;;;4998114;28;5154;-57
2023/10/07 03:15:03;;;;;;;;;;;;;;;;;;5010868;28;3273;-57
2023/10/07 03:17:39;;;;;;;;;;;;;;;;;;5008572;28;5205;-57
2023/10/07 03:28:20;;;;;;;;;;;;;;;;;;4999726;28;4714;-58
2023/10/07 03:30:51;;;;;;;;;;;;;;;;;;5008574;28;4724;-57
2023/10/07 03:33:17;;;;;;;;;;;;;;;;;;5007102;28;5017;-58
2023/10/07 03:38:26;;;;;;;;;;;;;;;;;;5007406;28;4456;-57
2023/10/07 03:40:55;;;;;;;;;;;;;;;;;;5010452;28;5005;-57
2023/10/07 03:43:26;;;;;;;;;;;;;;;;;;5009246;28;5000;-58
2023/10/07 03:45:54;;;;;;;;;;;;;;;;;;5005851;28;5079;-58
2023/10/07 03:48:23;;;;;;;;;;;;;;;;;;5007392;28;4962;-58
2023/10/07 03:50:48;;;;;;;;;;;;;;;;;;5008877;28;3289;-57
2023/10/07 03:53:15;;;;;;;;;;;;;;;;;;5008200;28;4696;-57
2023/10/07 03:55:40;;;;;;;;;;;;;;;;;;5013963;28;5154;-57
2023/10/07 03:58:06;;;;;;;;;;;;;;;;;;5010278;28;4970;-56
2023/10/07 04:00:35;;;;;;;;;;;;;;;;;;5004598;28;5206;-57
2023/10/07 04:03:07;;;;;;;;;;;;;;;;;;5007328;28;3340;-57
2023/10/07 04:05:35;;;;;;;;;;;;;;;;;;5005970;28;4939;-57
2023/10/07 04:08:02;;;;;;;;;;;;;;;;;;5004399;28;5060;-57
2023/10/07 04:10:36;;;;;;;;;;;;;;;;;;5008663;28;4486;-57
2023/10/07 04:13:07;;;;;;;;;;;;;;;;;;5009653;28;5098;-57
2023/10/07 04:15:35;;;;;;;;;;;;;;;;;;5008554;28;4985;-57
2023/10/07 04:18:00;;;;;;;;;;;;;;;;;;5001319;28;3310;-59
2023/10/07 04:20:42;;;;;;;;;;;;;;;;;;5000670;28;4702;-59
2023/10/07 04:23:07;;;;;;;;;;;;;;;;;;5004536;28;5156;-59
2023/10/07 04:25:42;;;;;;;;;;;;;;;;;;5003895;28;4563;-57
2023/10/07 04:28:08;;;;;;;;;;;;;;;;;;4991963;28;5142;-60
2023/10/07 04:30:39;;;;;;;;;;;;;;;;;;5006758;28;5448;-58
2023/10/07 04:33:08;;;;;;;;;;;;;;;;;;5022665;28;5124;-59
2023/10/07 04:35:33;;;;;;;;;;;;;;;;;;5003484;28;4955;-58
2023/10/07 04:43:35;;;;;;;;;;;;;;;;;;5005912;28;4477;-58
2023/10/07 04:46:06;;;;;;;;;;;;;;;;;;5006001;28;5186;-59
2023/10/07 04:48:42;;;;;;;;;;;;;;;;;;5008330;28;5182;-59
2023/10/07 04:51:12;;;;;;;;;;;;;;;;;;5006009;28;5190;-59
2023/10/07 04:53:40;;;;;;;;;;;;;;;;;;4999889;28;3331;-57
2023/10/07 04:56:06;;;;;;;;;;;;;;;;;;5004304;28;4687;-57
2023/10/07 04:58:31;;;;;;;;;;;;;;;;;;5006900;28;4966;-60
2023/10/07 05:01:04;;;;;;;;;;;;;;;;;;5002622;28;4686;-59
2023/10/07 05:03:30;;;;;;;;;;;;;;;;;;5006238;28;5130;-59
2023/10/07 05:05:55;;;;;;;;;;;;;;;;;;5005014;28;3540;-59
2023/10/07 05:08:22;;;;;;;;;;;;;;;;;;5003358;28;5080;-58
2023/10/07 05:10:52;;;;;;;;;;;;;;;;;;5007934;28;5039;-58
2023/10/07 05:13:17;;;;;;;;;;;;;;;;;;5002642;28;5079;-59
2023/10/07 05:15:43;;;;;;;;;;;;;;;;;;5001840;28;5011;-58
2023/10/07 05:18:11;;;;;;;;;;;;;;;;;;5006794;28;4963;-59
2023/10/07 05:20:37;;;;;;;;;;;;;;;;;;5007765;28;3331;-59
2023/10/07 05:23:04;;;;;;;;;;;;;;;;;;5008216;28;5109;-58
2023/10/07 05:25:35;;;;;;;;;;;;;;;;;;5000089;28;4892;-56
2023/10/07 05:28:02;;;;;;;;;;;;;;;;;;4998192;28;4641;-57
2023/10/07 05:30:28;;;;;;;;;;;;;;;;;;5001849;28;5074;-59
2023/10/07 05:32:55;;;;;;;;;;;;;;;;;;5006859;28;4862;-59
2023/10/07 05:35:20;;;;;;;;;;;;;;;;;;5003791;28;4434;-59
2023/10/07 05:37:46;;;;;;;;;;;;;;;;;;5005039;28;4457;-59
2023/10/07 05:40:16;;;;;;;;;;;;;;;;;;4999146;28;5010;-57
2023/10/07 05:42:42;;;;;;;;;;;;;;;;;;5001754;28;4478;-59
2023/10/07 05:45:07;;;;;;;;;;;;;;;;;;5010954;28;5284;-59
2023/10/07 05:47:33;;;;;;;;;;;;;;;;;;5005053;28;3423;-57
2023/10/07 05:50:00;;;;;;;;;;;;;;;;;;5018988;28;4534;-57
2023/10/07 05:52:26;;;;;;;;;;;;;;;;;;5005871;28;4689;-58
2023/10/07 05:54:51;;;;;;;;;;;;;;;;;;5000905;28;5342;-58
2023/10/07 05:57:17;;;;;;;;;;;;;;;;;;4982500;28;5133;-58
2023/10/07 05:59:43;;;;;;;;;;;;;;;;;;4998890;28;3397;-58
2023/10/07 06:02:13;;;;;;;;;;;;;;;;;;5004512;28;4708;-58
2023/10/07 06:04:39;;;;;;;;;;;;;;;;;;4998734;28;5073;-58
2023/10/07 06:07:07;;;;;;;;;;;;;;;;;;5004956;28;5097;-58
2023/10/07 06:09:32;;;;;;;;;;;;;;;;;;5006157;28;5046;-59
2023/10/07 06:11:59;;;;;;;;;;;;;;;;;;5001453;28;1427;-59
2023/10/07 06:14:24;;;;;;;;;;;;;;;;;;5003497;28;4643;-59
2023/10/07 06:16:52;;;;;;;;;;;;;;;;;;5017520;28;4715;-60
2023/10/07 06:19:17;;;;;;;;;;;;;;;;;;5005711;28;5051;-58
2023/10/07 06:21:50;;;;;;;;;;;;;;;;;;5004313;28;5143;-59
2023/10/07 06:24:20;;;;;;;;;;;;;;;;;;5002776;28;5078;-58
2023/10/07 06:26:46;;;;;;;;;;;;;;;;;;4995699;28;3496;-58
2023/10/07 06:29:18;;;;;;;;;;;;;;;;;;5011927;28;5151;-58
2023/10/07 06:31:48;;;;;;;;;;;;;;;;;;5005919;28;4513;-59
2023/10/07 06:34:14;;;;;;;;;;;;;;;;;;5006023;28;5025;-58
2023/10/07 06:36:40;;;;;;;;;;;;;;;;;;4996757;28;5082;-58
2023/10/07 06:39:07;;;;;;;;;;;;;;;;;;5005555;28;3358;-56
2023/10/07 06:41:33;;;;;;;;;;;;;;;;;;5000415;28;5189;-56
2023/10/07 06:44:08;;;;;;;;;;;;;;;;;;5004372;28;5196;-57
2023/10/07 06:46:44;;;;;;;;;;;;;;;;;;5006992;28;5487;-56
2023/10/07 06:49:18;;;;;;;;;;;;;;;;;;5000234;28;4958;-56
2023/10/07 06:51:50;;;;;;;;;;;;;;;;;;4999312;28;4497;-56
2023/10/07 06:54:16;;;;;;;;;;;;;;;;;;5006656;28;4895;-57
2023/10/07 06:56:41;;;;;;;;;;;;;;;;;;5004625;28;1124;-57
2023/10/07 06:59:06;;;;;;;;;;;;;;;;;;4996494;28;4687;-56
2023/10/07 07:01:36;;;;;;;;;;;;;;;;;;4995903;28;5114;-60
2023/10/07 07:04:09;;;;;;;;;;;;;;;;;;4998226;28;4533;-59
2023/10/07 07:06:42;;;;;;;;;;;;;;;;;;5005976;28;5159;-59
2023/10/07 07:09:41;;;;;;;;;;;;;;;;;;5007459;28;4665;-59
2023/10/07 07:11:53;;;;;;;;;;;;;;;;;;5019848;28;3306;-61
2023/10/07 07:14:18;;;;;;;;;;;;;;;;;;5006130;28;5056;-67
2023/10/07 07:16:44;;;;;;;;;;;;;;;;;;5002470;28;4963;-64
2023/10/07 07:19:11;;;;;;;;;;;;;;;;;;4995757;28;5045;-63
2023/10/07 07:21:38;;;;;;;;;;;;;;;;;;5004906;28;5094;-51
2023/10/07 07:24:03;;;;;;;;;;;;;;;;;;5021576;28;2651;-58
2023/10/07 07:26:30;;;;;;;;;;;;;;;;;;5004845;28;4907;-59
2023/10/07 07:28:57;;;;;;;;;;;;;;;;;;5006264;28;4887;-62
2023/10/07 07:31:26;;;;;;;;;;;;;;;;;;5006016;28;5014;-59
2023/10/07 07:33:52;;;;;;;;;;;;;;;;;;5001751;28;5144;-59
2023/10/07 07:39:01;;;;;;;;;;;;;;;;;;5006748;28;2030;-59
2023/10/07 07:41:28;;;;;;;;;;;;;;;;;;5006446;28;5015;-59
2023/10/07 07:43:58;;;;;;;;;;;;;;;;;;5001650;28;5008;-58
2023/10/07 07:46:28;;;;;;;;;;;;;;;;;;4995544;28;5425;-58
2023/10/07 07:48:54;;;;;;;;;;;;;;;;;;5003337;28;5090;-60
2023/10/07 07:51:24;;;;;;;;;;;;;;;;;;5006109;28;5122;-60
2023/10/07 07:53:49;;;;;;;;;;;;;;;;;;5010144;28;3411;-60
2023/10/07 07:56:15;;;;;;;;;;;;;;;;;;5006373;28;5023;-60
2023/10/07 07:58:47;;;;;;;;;;;;;;;;;;5008029;28;4696;-60
2023/10/07 08:01:18;;;;;;;;;;;;;;;;;;5005565;28;4479;-62
2023/10/07 08:03:43;;;;;;;;;;;;;;;;;;4991453;28;4805;-57
2023/10/07 08:06:14;;;;;;;;;;;;;;;;;;5005021;28;5129;-58
2023/10/07 08:08:39;;;;;;;;;;;;;;;;;;4997420;28;7636;-60
2023/10/07 08:11:05;;;;;;;;;;;;;;;;;;4993950;28;5220;-51
2023/10/07 08:13:30;;;;;;;;;;;;;;;;;;4999600;28;5074;-52
2023/10/07 08:15:56;;;;;;;;;;;;;;;;;;5006647;28;5125;-53
2023/10/07 08:18:30;;;;;;;;;;;;;;;;;;5012316;28;5618;-54
2023/10/07 08:21:13;;;;;;;;;;;;;;;;;;5006105;28;4981;-54
2023/10/07 08:23:40;;;;;;;;;;;;;;;;;;5000635;28;5141;-53
2023/10/07 08:26:22;;;;;;;;;;;;;;;;;;5000812;28;5429;-52
2023/10/07 08:28:59;;;;;;;;;;;;;;;;;;5007331;28;5330;-54
2023/10/07 08:31:37;;;;;;;;;;;;;;;;;;5008735;28;4997;-52
2023/10/07 08:36:37;;;;;;;;;;;;;;;;;;5009397;28;4627;-52
2023/10/07 08:39:06;;;;;;;;;;;;;;;;;;5005422;28;5125;-51
2023/10/07 08:41:31;;;;;;;;;;;;;;;;;;4991021;28;5127;-52
2023/10/07 08:44:51;;;;;;;;;;;;;;;;;;5017842;28;5486;-57
2023/10/07 08:46:49;;;;;;;;;;;;;;;;;;4998052;28;4509;-56
2023/10/07 08:49:24;;;;;;;;;;;;;;;;;;4998373;28;5042;-55
2023/10/07 08:51:50;;;;;;;;;;;;;;;;;;5018228;28;5222;-56
2023/10/07 08:54:25;;;;;;;;;;;;;;;;;;5002188;28;4912;-58
2023/10/07 08:56:54;;;;;;;;;;;;;;;;;;5008912;28;4946;-58
2023/10/07 08:59:22;;;;;;;;;;;;;;;;;;5018917;28;4482;-57
2023/10/07 09:01:48;;;;;;;;;;;;;;;;;;5007183;28;1204;-58
2023/10/07 09:04:13;;;;;;;;;;;;;;;;;;5005055;28;5006;-58
2023/10/07 09:06:50;;;;;;;;;;;;;;;;;;4996433;28;4957;-58
2023/10/07 09:09:39;;;;;;;;;;;;;;;;;;5000011;28;5121;-57
2023/10/07 09:12:15;;;;;;;;;;;;;;;;;;5004436;28;5658;-58
2023/10/07 09:14:46;;;;;;;;;;;;;;;;;;4983957;28;4942;-58
2023/10/07 09:17:12;;;;;;;;;;;;;;;;;;5001015;28;5100;-58
2023/10/07 09:19:43;;;;;;;;;;;;;;;;;;5002273;28;5052;-58
2023/10/07 09:22:10;;;;;;;;;;;;;;;;;;4999111;28;5200;-58
2023/10/07 09:24:41;;;;;;;;;;;;;;;;;;5003475;28;5104;-60
2023/10/07 09:27:10;;;;;;;;;;;;;;;;;;4999100;28;5163;-56
2023/10/07 09:29:36;;;;;;;;;;;;;;;;;;5001440;28;5032;-58
2023/10/07 09:32:04;;;;;;;;;;;;;;;;;;5009129;28;3517;-58
2023/10/07 09:34:54;;;;;;;;;;;;;;;;;;4978608;28;4401;-58
2023/10/07 09:37:21;;;;;;;;;;;;;;;;;;4999568;28;5186;-56
2023/10/07 09:39:54;;;;;;;;;;;;;;;;;;5004149;28;5633;-57
2023/10/07 09:42:36;;;;;;;;;;;;;;;;;;5002820;28;5053;-65
2023/10/07 09:47:37;;;;;;;;;;;;;;;;;;4999141;28;5192;-57
2023/10/07 09:50:10;;;;;;;;;;;;;;;;;;4981661;28;3471;-58
2023/10/07 09:52:35;;;;;;;;;;;;;;;;;;5012915;28;5267;-59
2023/10/07 09:55:23;;;;;;;;;;;;;;;;;;4999163;28;4537;-59
2023/10/07 09:58:07;;;;;;;;;;;;;;;;;;5008383;28;5081;-58
2023/10/07 10:00:38;;;;;;;;;;;;;;;;;;4999879;28;5073;-60
2023/10/07 10:03:12;;;;;;;;;;;;;;;;;;5014047;28;5111;-59
2023/10/07 10:05:52;;;;;;;;;;;;;;;;;;5002649;28;5096;-58
2023/10/07 10:08:21;;;;;;;;;;;;;;;;;;4993206;28;5210;-56
2023/10/07 10:10:57;;;;;;;;;;;;;;;;;;4995404;28;3554;-58
2023/10/07 10:13:51;;;;;;;;;;;;;;;;;;5013545;28;4742;-57
2023/10/07 10:16:14;;;;;;;;;;;;;;;;;;5001593;28;5130;-58
2023/10/07 10:18:44;;;;;;;;;;;;;;;;;;5005301;28;5741;-59
2023/10/07 10:21:12;;;;;;;;;;;;;;;;;;5002196;28;5208;-58
2023/10/07 10:23:41;;;;;;;;;;;;;;;;;;4998024;28;5012;-60
2023/10/07 10:26:20;;;;;;;;;;;;;;;;;;4996885;28;3500;-61
2023/10/07 10:29:06;;;;;;;;;;;;;;;;;;4993704;28;4546;-59
2023/10/07 10:31:32;;;;;;;;;;;;;;;;;;5000844;28;5487;-61
2023/10/07 10:33:59;;;;;;;;;;;;;;;;;;4995391;28;4995;-59
2023/10/07 10:36:24;;;;;;;;;;;;;;;;;;5003898;28;5156;-58
2023/10/07 10:38:49;;;;;;;;;;;;;;;;;;4996176;28;4658;-58
2023/10/07 10:41:25;;;;;;;;;;;;;;;;;;4999904;28;5119;-56
2023/10/07 10:43:51;;;;;;;;;;;;;;;;;;5014298;28;3421;-59
2023/10/07 10:46:17;;;;;;;;;;;;;;;;;;4999658;28;5116;-58
2023/10/07 10:48:42;;;;;;;;;;;;;;;;;;4999497;28;5108;-60
2023/10/07 10:51:08;;;;;;;;;;;;;;;;;;5003019;28;4720;-58
2023/10/07 10:53:33;;;;;;;;;;;;;;;;;;5007436;28;4532;-58
2023/10/07 10:55:59;;;;;;;;;;;;;;;;;;5001384;28;3404;-59
2023/10/07 10:58:25;;;;;;;;;;;;;;;;;;5003948;28;5106;-55
2023/10/07 11:00:51;;;;;;;;;;;;;;;;;;4997117;28;5202;-57
2023/10/07 11:03:21;;;;;;;;;;;;;;;;;;4981004;28;5195;-58
2023/10/07 11:05:56;;;;;;;;;;;;;;;;;;5004282;28;4685;-55
2023/10/07 11:08:25;;;;;;;;;;;;;;;;;;4998925;28;4904;-57
2023/10/07 11:10:53;;;;;;;;;;;;;;;;;;5012117;28;3454;-56
2023/10/07 11:13:20;;;;;;;;;;;;;;;;;;5003142;28;5030;-55
2023/10/07 11:16:09;;;;;;;;;;;;;;;;;;4996944;28;5089;-56
2023/10/07 11:18:37;;;;;;;;;;;;;;;;;;5003373;28;5133;-55
2023/10/07 11:21:04;;;;;;;;;;;;;;;;;;5001576;28;4747;-56
2023/10/07 11:23:30;;;;;;;;;;;;;;;;;;5009261;28;5036;-55
2023/10/07 11:25:55;;;;;;;;;;;;;;;;;;4986412;28;1992;-51
2023/10/07 11:28:22;;;;;;;;;;;;;;;;;;5003425;28;4432;-54
2023/10/07 11:30:48;;;;;;;;;;;;;;;;;;5010463;28;5113;-51
2023/10/07 11:33:17;;;;;;;;;;;;;;;;;;5007658;28;5091;-53
2023/10/07 11:36:12;;;;;;;;;;;;;;;;;;5009886;28;4796;-54
2023/10/07 11:38:38;;;;;;;;;;;;;;;;;;4993894;28;5421;-48
2023/10/07 11:41:06;;;;;;;;;;;;;;;;;;5010117;28;3573;-45
2023/10/07 11:43:42;;;;;;;;;;;;;;;;;;5005291;28;4966;-69
2023/10/07 11:46:08;;;;;;;;;;;;;;;;;;5005565;28;5061;-55
2023/10/07 11:48:33;;;;;;;;;;;;;;;;;;5003879;28;4684;-57
2023/10/07 11:50:58;;;;;;;;;;;;;;;;;;5008497;28;5143;-52
2023/10/07 11:53:25;;;;;;;;;;;;;;;;;;5003961;28;5211;-52
2023/10/07 11:55:50;;;;;;;;;;;;;;;;;;5002566;28;3373;-49
2023/10/07 11:58:17;;;;;;;;;;;;;;;;;;5002894;28;4594;-53
2023/10/07 12:00:43;;;;;;;;;;;;;;;;;;5006657;28;4980;-53
2023/10/07 12:03:08;;;;;;;;;;;;;;;;;;5003581;28;5159;-51
2023/10/07 12:05:34;;;;;;;;;;;;;;;;;;5007152;28;4820;-54
2023/10/07 12:08:01;;;;;;;;;;;;;;;;;;4993638;28;1412;-51
2023/10/07 12:10:30;;;;;;;;;;;;;;;;;;5001538;28;5024;-52
2023/10/07 12:12:57;;;;;;;;;;;;;;;;;;5007627;28;5026;-50
2023/10/07 12:15:25;;;;;;;;;;;;;;;;;;5004505;28;5118;-53
2023/10/07 12:17:50;;;;;;;;;;;;;;;;;;5001304;28;5151;-51
2023/10/07 12:20:15;;;;;;;;;;;;;;;;;;4995815;28;4888;-52
2023/10/07 12:22:44;;;;;;;;;;;;;;;;;;5006044;28;3671;-52
2023/10/07 12:25:16;;;;;;;;;;;;;;;;;;5002302;28;5052;-53
2023/10/07 12:27:53;;;;;;;;;;;;;;;;;;5004941;28;5023;-52
2023/10/07 12:30:21;;;;;;;;;;;;;;;;;;5002794;28;5102;-53
2023/10/07 12:32:48;;;;;;;;;;;;;;;;;;5002499;28;4583;-54
2023/10/07 12:35:13;;;;;;;;;;;;;;;;;;5000232;28;1082;-52
2023/10/07 12:37:39;;;;;;;;;;;;;;;;;;5003237;28;5038;-53
2023/10/07 12:40:10;;;;;;;;;;;;;;;;;;5002391;28;4849;-51
2023/10/07 12:42:35;;;;;;;;;;;;;;;;;;5006688;28;5080;-54
2023/10/07 12:45:01;;;;;;;;;;;;;;;;;;5023291;28;5097;-54
2023/10/07 12:47:29;;;;;;;;;;;;;;;;;;5008061;28;5116;-54
2023/10/07 12:49:54;;;;;;;;;;;;;;;;;;5008694;28;1114;-54
2023/10/07 12:52:20;;;;;;;;;;;;;;;;;;5007693;28;5109;-52
2023/10/07 12:54:45;;;;;;;;;;;;;;;;;;5022913;28;5069;-51
2023/10/07 12:57:15;;;;;;;;;;;;;;;;;;5007531;28;5100;-54
2023/10/07 12:59:42;;;;;;;;;;;;;;;;;;4990287;28;4901;-53
2023/10/07 13:02:09;;;;;;;;;;;;;;;;;;5007932;28;2306;-54
2023/10/07 13:04:34;;;;;;;;;;;;;;;;;;5007324;28;5140;-53
2023/10/07 13:07:09;;;;;;;;;;;;;;;;;;5003948;28;5188;-53
2023/10/07 13:09:35;;;;;;;;;;;;;;;;;;5003778;28;5126;-51
2023/10/07 13:12:00;;;;;;;;;;;;;;;;;;5004729;28;5059;-52
2023/10/07 13:14:26;;;;;;;;;;;;;;;;;;5007547;28;4462;-54
2023/10/07 13:16:58;;;;;;;;;;;;;;;;;;5002737;28;5175;-53
2023/10/07 13:19:26;;;;;;;;;;;;;;;;;;5007228;28;4939;-53
2023/10/07 13:21:52;;;;;;;;;;;;;;;;;;5001028;28;5066;-53
2023/10/07 13:24:17;;;;;;;;;;;;;;;;;;5005771;28;5040;-52
2023/10/07 13:26:44;;;;;;;;;;;;;;;;;;5002692;28;5013;-50
2023/10/07 13:29:12;;;;;;;;;;;;;;;;;;5004435;28;1205;-54
2023/10/07 13:31:40;;;;;;;;;;;;;;;;;;4989200;28;5127;-54
2023/10/07 13:34:07;;;;;;;;;;;;;;;;;;5002491;28;4450;-53
2023/10/07 13:36:37;;;;;;;;;;;;;;;;;;4982038;28;5103;-54
2023/10/07 13:39:04;;;;;;;;;;;;;;;;;;5004325;28;5095;-53
2023/10/07 13:41:29;;;;;;;;;;;;;;;;;;5003813;28;4643;-52
2023/10/07 13:43:54;;;;;;;;;;;;;;;;;;4988705;28;1359;-54
2023/10/07 13:46:19;;;;;;;;;;;;;;;;;;5006973;28;4480;-53
2023/10/07 13:48:45;;;;;;;;;;;;;;;;;;5003316;28;5259;-53
2023/10/07 13:51:10;;;;;;;;;;;;;;;;;;5002661;28;4680;-54
2023/10/07 13:56:45;;;;;;;;;;;;;;;;;;5005181;28;4494;-53
2023/10/07 13:59:11;;;;;;;;;;;;;;;;;;5004266;28;2405;-53
2023/10/07 14:01:37;;;;;;;;;;;;;;;;;;5000587;28;5016;-54
2023/10/07 14:04:02;;;;;;;;;;;;;;;;;;4998552;28;4713;-53
2023/10/07 14:06:28;;;;;;;;;;;;;;;;;;4998315;28;4689;-53
2023/10/07 14:08:53;;;;;;;;;;;;;;;;;;5004741;28;5072;-52
2023/10/07 14:11:19;;;;;;;;;;;;;;;;;;5003863;28;5113;-53
2023/10/07 14:13:46;;;;;;;;;;;;;;;;;;5002614;28;1248;-52
2023/10/07 14:16:17;;;;;;;;;;;;;;;;;;5003429;28;5045;-53
2023/10/07 14:18:42;;;;;;;;;;;;;;;;;;5003974;28;5049;-53
2023/10/07 14:21:08;;;;;;;;;;;;;;;;;;5001131;28;5127;-54
2023/10/07 14:23:34;;;;;;;;;;;;;;;;;;5002742;28;5117;-55
2023/10/07 14:26:03;;;;;;;;;;;;;;;;;;5006415;28;2008;-54
2023/10/07 14:28:29;;;;;;;;;;;;;;;;;;5000470;28;4991;-54
2023/10/07 14:30:55;;;;;;;;;;;;;;;;;;5005928;28;4652;-53
2023/10/07 14:33:20;;;;;;;;;;;;;;;;;;5006050;28;4649;-52
2023/10/07 14:35:49;;;;;;;;;;;;;;;;;;5002031;28;5011;-51
2023/10/07 14:38:14;;;;;;;;;;;;;;;;;;5001621;28;4874;-51
2023/10/07 14:40:41;;;;;;;;;;;;;;;;;;5002390;28;1089;-54
2023/10/07 14:43:06;;;;;;;;;;;;;;;;;;4999802;28;4951;-52
2023/10/07 14:45:34;;;;;;;;;;;;;;;;;;5002083;28;5070;-52
2023/10/07 14:48:05;;;;;;;;;;;;;;;;;;5006445;28;4496;-52
2023/10/07 14:50:40;;;;;;;;;;;;;;;;;;5005305;28;5110;-52
2023/10/07 14:53:08;;;;;;;;;;;;;;;;;;4995485;28;1394;-53
2023/10/07 14:55:33;;;;;;;;;;;;;;;;;;5003602;28;4445;-53
2023/10/07 14:58:03;;;;;;;;;;;;;;;;;;5000043;28;5026;-52
2023/10/07 15:00:29;;;;;;;;;;;;;;;;;;5001736;28;4476;-51
2023/10/07 15:02:55;;;;;;;;;;;;;;;;;;5005388;28;5048;-53
2023/10/07 15:05:21;;;;;;;;;;;;;;;;;;4998935;28;4550;-53
2023/10/07 15:07:46;;;;;;;;;;;;;;;;;;5006230;28;1185;-50
2023/10/07 15:10:13;;;;;;;;;;;;;;;;;;5000588;28;5032;-51
2023/10/07 15:12:38;;;;;;;;;;;;;;;;;;5003230;28;4655;-52
2023/10/07 15:15:06;;;;;;;;;;;;;;;;;;4998974;28;5167;-50
2023/10/07 15:17:31;;;;;;;;;;;;;;;;;;4984511;28;5304;-52
2023/10/07 15:19:57;;;;;;;;;;;;;;;;;;5002125;28;1118;-52
2023/10/07 15:22:22;;;;;;;;;;;;;;;;;;5003506;28;4591;-52
2023/10/07 15:24:47;;;;;;;;;;;;;;;;;;4996020;28;4979;-53
2023/10/07 15:27:14;;;;;;;;;;;;;;;;;;5002796;28;4998;-53
2023/10/07 15:29:39;;;;;;;;;;;;;;;;;;5003108;28;5101;-52
2023/10/07 15:32:05;;;;;;;;;;;;;;;;;;5000805;28;1063;-51
2023/10/07 15:34:30;;;;;;;;;;;;;;;;;;5015030;28;4500;-49
2023/10/07 15:36:59;;;;;;;;;;;;;;;;;;5005564;28;4985;-52
2023/10/07 15:39:24;;;;;;;;;;;;;;;;;;5001918;28;5060;-52
2023/10/07 15:41:51;;;;;;;;;;;;;;;;;;4984068;28;4988;-55
2023/10/07 15:44:17;;;;;;;;;;;;;;;;;;5005643;28;4618;-53
2023/10/07 15:46:42;;;;;;;;;;;;;;;;;;5005743;28;1926;-54
2023/10/07 15:49:10;;;;;;;;;;;;;;;;;;5003984;28;4778;-51
2023/10/07 15:51:36;;;;;;;;;;;;;;;;;;4995258;28;5039;-52
2023/10/07 15:54:03;;;;;;;;;;;;;;;;;;5002538;28;4572;-53
2023/10/07 15:56:29;;;;;;;;;;;;;;;;;;4997565;28;5043;-53
2023/10/07 15:58:55;;;;;;;;;;;;;;;;;;4986359;28;1240;-54
2023/10/07 16:01:20;;;;;;;;;;;;;;;;;;4997359;28;5193;-52
2023/10/07 16:03:45;;;;;;;;;;;;;;;;;;4998817;28;4974;-52
2023/10/07 16:06:14;;;;;;;;;;;;;;;;;;5001500;28;4492;-52
2023/10/07 16:08:39;;;;;;;;;;;;;;;;;;4998935;28;4535;-52
2023/10/07 16:11:06;;;;;;;;;;;;;;;;;;4994500;28;1119;-51
2023/10/07 16:13:31;;;;;;;;;;;;;;;;;;5004699;28;5009;-52
2023/10/07 16:16:00;;;;;;;;;;;;;;;;;;5007024;28;4960;-52
2023/10/07 16:18:26;;;;;;;;;;;;;;;;;;5001866;28;5107;-53
2023/10/07 16:20:51;;;;;;;;;;;;;;;;;;5004206;28;4982;-51
2023/10/07 16:23:17;;;;;;;;;;;;;;;;;;5000733;28;5418;-53
2023/10/07 16:25:42;;;;;;;;;;;;;;;;;;5002394;28;1993;-52
2023/10/07 16:28:08;;;;;;;;;;;;;;;;;;5006574;28;4763;-52
2023/10/07 16:30:33;;;;;;;;;;;;;;;;;;4990434;28;5039;-51
2023/10/07 16:32:58;;;;;;;;;;;;;;;;;;5004790;28;5048;-52
2023/10/07 16:35:24;;;;;;;;;;;;;;;;;;4990249;28;4994;-53
2023/10/07 16:37:50;;;;;;;;;;;;;;;;;;5001581;28;1251;-52
2023/10/07 16:40:18;;;;;;;;;;;;;;;;;;5006704;28;4967;-53
2023/10/07 16:42:43;;;;;;;;;;;;;;;;;;5008128;28;4989;-53
2023/10/07 16:45:11;;;;;;;;;;;;;;;;;;5006011;28;5146;-53
2023/10/07 16:47:37;;;;;;;;;;;;;;;;;;5007688;28;4952;-50
2023/10/07 16:50:03;;;;;;;;;;;;;;;;;;5008530;28;1106;-53
2023/10/07 16:52:28;;;;;;;;;;;;;;;;;;5014455;28;4613;-53
2023/10/07 16:54:54;;;;;;;;;;;;;;;;;;5007704;28;5724;-54
2023/10/07 16:57:20;;;;;;;;;;;;;;;;;;5004910;28;5122;-53
2023/10/07 16:59:45;;;;;;;;;;;;;;;;;;5006145;28;4878;-53
2023/10/07 17:02:10;;;;;;;;;;;;;;;;;;5007662;28;1194;-52
2023/10/07 17:04:36;;;;;;;;;;;;;;;;;;5007114;28;5047;-53
2023/10/07 17:07:01;;;;;;;;;;;;;;;;;;5003017;28;5077;-53
2023/10/07 17:09:26;;;;;;;;;;;;;;;;;;5001256;28;5059;-50
2023/10/07 17:11:53;;;;;;;;;;;;;;;;;;5004688;28;5109;-52
2023/10/07 17:14:18;;;;;;;;;;;;;;;;;;5008373;28;4681;-53
2023/10/07 17:16:44;;;;;;;;;;;;;;;;;;5005277;28;5065;-53
2023/10/07 17:19:11;;;;;;;;;;;;;;;;;;5002200;28;5078;-55
2023/10/07 17:21:36;;;;;;;;;;;;;;;;;;5001582;28;5024;-54
2023/10/07 17:24:03;;;;;;;;;;;;;;;;;;4994974;28;4811;-54
2023/10/07 17:26:29;;;;;;;;;;;;;;;;;;4998923;28;5111;-53
2023/10/07 17:28:54;;;;;;;;;;;;;;;;;;4997219;28;3432;-54
2023/10/07 17:31:19;;;;;;;;;;;;;;;;;;4996791;28;4814;-54
2023/10/07 17:33:45;;;;;;;;;;;;;;;;;;4996003;28;4762;-55
2023/10/07 17:36:10;;;;;;;;;;;;;;;;;;5005065;28;5487;-53
2023/10/07 17:38:35;;;;;;;;;;;;;;;;;;5000200;28;5146;-54
2023/10/07 17:41:01;;;;;;;;;;;;;;;;;;5004973;28;3405;-54
2023/10/07 17:43:27;;;;;;;;;;;;;;;;;;4999826;28;5220;-55
2023/10/07 17:45:55;;;;;;;;;;;;;;;;;;5001168;28;4681;-55
2023/10/07 17:48:21;;;;;;;;;;;;;;;;;;5000545;28;4696;-53